Time;durP1;ratioP1;P1;durP2;ratioP2;P2;SDS_P1;SDS_P2;PMS_P1;PMS_P2;Temp;Humidity;BMP_temperature;BMP_pressure;BME280_temperature;BME280_humidity;BME280_pressure;Samples;Min_cycle;Max_cycle;Signal;HPM_P1;HPM_P2
2021/05/21 00:00:15;;;;;;;7.70;2.08;;;;;;;24.33;43.00;99830.31;4483696;32;33834;-63
2021/05/21 00:02:43;;;;;;;9.52;2.58;;;;;;;24.32;43.09;99828.66;4483682;32;34005;-62
2021/05/21 00:05:10;;;;;;;6.68;2.00;;;;;;;24.32;43.20;99827.81;4481747;32;33365;-61
2021/05/21 00:07:38;;;;;;;9.70;2.40;;;;;;;24.31;43.18;99823.44;4473544;32;32883;-61
2021/05/21 00:10:06;;;;;;;4.72;2.08;;;;;;;24.31;43.21;99820.72;4483013;32;33861;-61
2021/05/21 00:12:34;;;;;;;12.25;2.12;;;;;;;24.30;43.15;99827.25;4483988;32;34028;-61
2021/05/21 00:15:02;;;;;;;4.25;1.48;;;;;;;24.29;43.19;99820.94;4475283;32;33949;-61
2021/05/21 00:17:30;;;;;;;5.07;1.73;;;;;;;24.30;43.19;99816.31;4467824;32;34386;-61
2021/05/21 00:19:58;;;;;;;5.62;1.77;;;;;;;24.29;43.15;99812.75;4466703;32;33930;-61
2021/05/21 00:22:26;;;;;;;6.65;2.30;;;;;;;24.28;43.16;99811.09;4467960;32;34816;-61
2021/05/21 00:24:54;;;;;;;7.65;1.67;;;;;;;24.28;43.13;99810.25;4467761;32;34516;-60
2021/05/21 00:27:22;;;;;;;8.30;1.90;;;;;;;24.27;43.17;99816.78;4477361;32;33775;-61
2021/05/21 00:29:49;;;;;;;7.00;2.22;;;;;;;24.26;43.13;99815.94;4483555;32;33962;-61
2021/05/21 00:32:17;;;;;;;6.03;1.80;;;;;;;24.26;43.15;99817.84;4483343;32;34740;-61
2021/05/21 00:34:45;;;;;;;6.78;2.37;;;;;;;24.25;43.06;99816.16;4469357;32;34248;-61
2021/05/21 00:37:12;;;;;;;7.10;2.10;;;;;;;24.25;43.02;99817.03;4467523;32;33822;-61
2021/05/21 00:39:40;;;;;;;6.05;1.80;;;;;;;24.25;43.17;99822.47;4467489;32;33862;-61
2021/05/21 00:42:08;;;;;;;10.95;2.10;;;;;;;24.24;43.26;99828.97;4467865;32;34139;-61
2021/05/21 00:44:35;;;;;;;8.00;2.17;;;;;;;24.24;43.22;99822.69;4467582;32;34561;-61
2021/05/21 00:47:03;;;;;;;4.28;2.03;;;;;;;24.24;43.18;99817.25;4467479;32;34217;-61
2021/05/21 00:49:30;;;;;;;6.55;2.22;;;;;;;24.24;43.13;99814.50;4473742;32;33900;-62
2021/05/21 00:52:01;;;;;;;6.43;1.70;;;;;;;24.23;43.15;99810.13;4483235;32;33977;-63
2021/05/21 00:54:29;;;;;;;5.65;1.60;;;;;;;24.22;43.18;99822.09;4482017;32;33560;-64
2021/05/21 00:56:56;;;;;;;3.85;1.58;;;;;;;24.22;43.13;99820.19;4467933;32;33528;-63
2021/05/21 00:59:24;;;;;;;6.93;2.42;;;;;;;24.21;43.18;99823.16;4471220;32;33787;-62
2021/05/21 01:01:51;;;;;;;6.62;2.05;;;;;;;24.21;43.16;99829.44;4468950;32;35535;-63
2021/05/21 01:04:19;;;;;;;5.95;2.72;;;;;;;24.22;43.09;99822.09;4469026;32;34257;-63
2021/05/21 01:06:46;;;;;;;5.50;1.62;;;;;;;24.22;43.08;99824.81;4470155;32;33853;-62
2021/05/21 01:09:14;;;;;;;7.72;1.52;;;;;;;24.21;43.15;99829.44;4467410;32;33916;-62
2021/05/21 01:11:42;;;;;;;10.55;2.12;;;;;;;24.21;43.20;99829.44;4467247;32;34798;-63
2021/05/21 01:14:09;;;;;;;7.18;2.30;;;;;;;24.20;43.31;99822.31;4467223;32;33597;-62
2021/05/21 01:16:37;;;;;;;7.35;1.90;;;;;;;24.19;43.32;99829.66;4467325;32;33702;-63
2021/05/21 01:19:05;;;;;;;3.75;1.67;;;;;;;24.19;43.21;99826.94;4480704;32;33827;-63
2021/05/21 01:21:33;;;;;;;7.85;1.60;;;;;;;24.18;43.22;99825.28;4482729;32;34145;-62
2021/05/21 01:24:02;;;;;;;6.10;2.12;;;;;;;24.18;43.24;99822.56;4481620;32;33565;-62
2021/05/21 01:26:30;;;;;;;4.53;1.60;;;;;;;24.18;43.27;99825.28;4483042;32;33748;-63
2021/05/21 01:28:58;;;;;;;4.93;1.70;;;;;;;24.18;43.19;99828.00;4482671;32;33563;-63
2021/05/21 01:31:26;;;;;;;4.20;1.62;;;;;;;24.18;43.46;99841.63;4483495;32;34896;-63
2021/05/21 01:33:53;;;;;;;5.45;1.70;;;;;;;24.17;43.42;99837.25;4485028;32;33060;-62
2021/05/21 01:36:21;;;;;;;6.05;1.90;;;;;;;24.17;43.31;99839.16;4484990;32;33835;-62
2021/05/21 01:39:09;;;;;;;6.65;1.77;;;;;;;24.17;43.22;99842.72;4484699;32;34824;-63
2021/05/21 01:41:37;;;;;;;5.53;1.58;;;;;;;24.18;43.39;99844.38;4484740;32;35027;-63
2021/05/21 01:44:06;;;;;;;4.93;1.58;;;;;;;24.17;43.27;99842.72;4484894;32;33331;-63
2021/05/21 01:46:34;;;;;;;6.43;1.85;;;;;;;24.16;43.26;99841.06;4484824;32;33830;-62
2021/05/21 01:49:02;;;;;;;7.68;1.75;;;;;;;24.17;43.28;99847.34;4484659;32;33899;-62
2021/05/21 01:51:29;;;;;;;4.12;1.62;;;;;;;24.17;43.27;99833.69;4484934;32;33814;-63
2021/05/21 01:54:23;;;;;;;4.20;1.60;;;;;;;24.16;43.26;99841.06;4481174;32;34393;-63
2021/05/21 01:56:54;;;;;;;3.70;1.40;;;;;;;24.19;43.20;99845.19;4469094;32;33942;-63
2021/05/21 01:59:22;;;;;;;3.35;1.50;;;;;;;24.18;43.21;99838.91;4469000;32;34717;-62
2021/05/21 02:01:50;;;;;;;7.78;1.98;;;;;;;24.16;43.20;99835.59;4468956;32;34044;-63
2021/05/21 02:04:35;;;;;;;5.50;1.87;;;;;;;24.15;43.22;99833.94;4469126;32;33202;-62
2021/05/21 02:07:06;;;;;;;4.53;1.90;;;;;;;24.17;43.44;99837.25;4469161;32;34359;-62
2021/05/21 02:09:53;;;;;;;8.02;2.08;;;;;;;24.15;43.39;99833.09;4469001;32;33798;-63
2021/05/21 02:12:24;;;;;;;4.10;1.73;;;;;;;24.15;43.39;99835.81;4467901;32;34509;-62
2021/05/21 02:14:53;;;;;;;7.12;1.80;;;;;;;24.14;43.42;99826.81;4469014;32;33549;-63
2021/05/21 02:17:21;;;;;;;6.15;1.85;;;;;;;24.15;43.42;99833.09;4468673;32;33950;-62
2021/05/21 02:19:48;;;;;;;7.60;1.92;;;;;;;24.13;43.46;99825.16;4468894;32;33879;-63
2021/05/21 02:22:20;;;;;;;4.80;1.70;;;;;;;24.13;43.39;99829.75;4468945;32;34741;-63
2021/05/21 02:24:54;;;;;;;5.03;1.80;;;;;;;24.13;43.34;99829.75;4468711;32;33493;-63
2021/05/21 02:27:22;;;;;;;3.75;1.27;;;;;;;24.12;43.39;99830.84;4468850;32;33634;-61
2021/05/21 02:29:50;;;;;;;4.68;1.37;;;;;;;24.11;43.40;99829.19;4469133;32;33807;-63
2021/05/21 02:32:18;;;;;;;5.07;1.27;;;;;;;24.11;43.36;99829.19;4468736;32;34555;-62
2021/05/21 02:34:45;;;;;;;4.80;1.60;;;;;;;24.11;43.33;99835.47;4468749;32;33613;-63
2021/05/21 02:37:13;;;;;;;3.55;1.50;;;;;;;24.11;43.37;99829.19;4468678;32;33775;-62
2021/05/21 02:39:40;;;;;;;3.42;1.80;;;;;;;24.10;43.28;99825.59;4468571;32;33715;-63
2021/05/21 02:42:08;;;;;;;4.65;1.70;;;;;;;24.10;43.29;99825.59;4468486;32;34989;-63
2021/05/21 02:44:37;;;;;;;4.22;1.40;;;;;;;24.10;43.35;99835.66;4468744;32;33536;-63
2021/05/21 02:47:05;;;;;;;4.45;1.50;;;;;;;24.10;43.37;99831.03;4467595;32;33838;-63
2021/05/21 02:49:34;;;;;;;6.15;1.60;;;;;;;24.08;43.41;99827.72;4468710;32;34699;-63
2021/05/21 02:52:02;;;;;;;4.00;1.50;;;;;;;24.08;43.36;99822.28;4468606;32;34698;-62
2021/05/21 02:54:29;;;;;;;5.07;1.70;;;;;;;24.07;43.26;99820.63;4475060;32;33946;-62
2021/05/21 02:56:57;;;;;;;3.17;1.50;;;;;;;24.08;43.44;99827.72;4484407;32;33803;-63
2021/05/21 02:59:25;;;;;;;3.60;1.58;;;;;;;24.07;43.44;99826.06;4484133;32;34641;-62
2021/05/21 03:01:52;;;;;;;3.05;1.35;;;;;;;24.07;43.37;99825.25;4484394;32;33958;-62
2021/05/21 03:04:20;;;;;;;6.20;1.87;;;;;;;24.07;43.39;99831.53;4484357;32;33990;-62
2021/05/21 03:06:48;;;;;;;4.72;1.42;;;;;;;24.06;43.36;99835.31;4484418;32;33534;-62
2021/05/21 03:09:16;;;;;;;4.15;1.75;;;;;;;24.05;43.39;99830.91;4484254;32;33585;-63
2021/05/21 03:11:44;;;;;;;5.22;1.58;;;;;;;24.06;43.36;99823.56;4484245;32;34227;-62
2021/05/21 03:14:11;;;;;;;2.62;1.55;;;;;;;24.05;43.31;99825.44;4484193;32;34351;-63
2021/05/21 03:16:39;;;;;;;2.83;1.23;;;;;;;24.05;43.43;99825.44;4484265;32;33747;-63
2021/05/21 03:19:07;;;;;;;4.18;1.60;;;;;;;24.05;43.43;99822.72;4484246;32;34651;-62
2021/05/21 03:21:34;;;;;;;4.10;1.50;;;;;;;24.05;43.43;99827.34;4482713;32;34138;-63
2021/05/21 03:24:02;;;;;;;4.12;1.52;;;;;;;24.05;43.35;99835.53;4484233;32;33276;-63
2021/05/21 03:26:30;;;;;;;5.87;1.75;;;;;;;24.04;43.37;99823.78;4484152;32;33452;-63
2021/05/21 03:28:58;;;;;;;3.25;1.62;;;;;;;24.05;43.42;99830.91;4483983;32;34627;-61
2021/05/21 03:31:25;;;;;;;7.30;1.60;;;;;;;24.05;43.43;99828.19;4484318;32;33751;-62
2021/05/21 03:33:53;;;;;;;3.15;1.48;;;;;;;24.05;43.41;99821.91;4484141;32;33216;-62
2021/05/21 03:36:20;;;;;;;7.18;1.80;;;;;;;24.04;43.42;99825.69;4483848;32;34536;-63
2021/05/21 03:38:48;;;;;;;5.03;1.50;;;;;;;24.04;43.40;99829.25;4483961;32;33818;-63
2021/05/21 03:41:16;;;;;;;3.60;1.45;;;;;;;24.04;43.35;99839.31;4484248;32;34344;-61
2021/05/21 03:43:43;;;;;;;4.68;1.40;;;;;;;24.03;43.39;99833.03;4483797;32;34935;-63
2021/05/21 03:46:11;;;;;;;5.55;1.73;;;;;;;24.04;43.34;99833.87;4484035;32;33336;-63
2021/05/21 03:48:38;;;;;;;5.32;1.30;;;;;;;24.04;43.47;99833.87;4484315;32;34547;-62
2021/05/21 03:51:06;;;;;;;7.28;1.52;;;;;;;24.03;43.38;99830.31;4483802;32;34749;-62
2021/05/21 03:53:34;;;;;;;5.03;1.40;;;;;;;24.03;43.48;99832.22;4483380;32;33741;-63
2021/05/21 03:56:01;;;;;;;3.72;1.40;;;;;;;24.03;43.49;99826.75;4467103;32;33913;-62
2021/05/21 03:58:30;;;;;;;5.87;1.67;;;;;;;24.02;43.46;99834.13;4468031;32;34527;-63
2021/05/21 04:00:58;;;;;;;4.70;1.65;;;;;;;24.01;43.48;99829.69;4467023;32;34210;-63
2021/05/21 04:03:28;;;;;;;5.90;1.50;;;;;;;24.01;43.46;99821.53;4468012;32;34308;-62
2021/05/21 04:05:55;;;;;;;5.78;1.70;;;;;;;24.03;43.46;99824.03;4467017;32;33858;-61
2021/05/21 04:08:23;;;;;;;3.33;1.35;;;;;;;24.01;43.35;99835.16;4468147;32;33803;-63
2021/05/21 04:10:51;;;;;;;6.55;1.62;;;;;;;24.02;43.32;99838.72;4467915;32;34150;-63
2021/05/21 04:13:18;;;;;;;3.95;1.60;;;;;;;24.01;43.57;99840.59;4467968;32;33573;-61
2021/05/21 04:15:46;;;;;;;6.80;1.75;;;;;;;24.01;43.53;99845.22;4468128;32;33758;-62
2021/05/21 04:18:13;;;;;;;3.97;1.37;;;;;;;24.02;43.44;99836.00;4468212;32;33670;-62
2021/05/21 04:20:41;;;;;;;4.62;1.70;;;;;;;24.00;43.39;99838.12;4467678;32;34694;-63
2021/05/21 04:23:09;;;;;;;7.50;1.60;;;;;;;24.00;43.31;99843.56;4477588;32;33501;-61
2021/05/21 04:25:37;;;;;;;5.32;1.52;;;;;;;24.00;43.26;99843.56;4483307;32;33849;-61
2021/05/21 04:28:04;;;;;;;4.12;1.50;;;;;;;23.99;43.24;99837.28;4483410;32;33848;-61
2021/05/21 04:30:32;;;;;;;5.78;1.50;;;;;;;23.99;43.21;99836.47;4474560;32;34301;-61
2021/05/21 04:32:59;;;;;;;3.55;1.52;;;;;;;23.98;43.20;99843.81;4477164;32;33541;-63
2021/05/21 04:35:27;;;;;;;5.60;1.50;;;;;;;23.98;43.17;99837.53;4474985;32;33616;-61
2021/05/21 04:37:54;;;;;;;4.80;1.60;;;;;;;23.97;43.15;99835.84;4477378;32;33949;-61
2021/05/21 04:40:22;;;;;;;3.85;1.20;;;;;;;23.97;43.16;99839.41;4477399;32;34328;-61
2021/05/21 04:42:50;;;;;;;4.70;1.40;;;;;;;23.95;43.11;99836.06;4472315;32;34241;-61
2021/05/21 04:45:17;;;;;;;3.40;1.30;;;;;;;23.96;43.08;99836.91;4468322;32;33935;-61
2021/05/21 04:47:45;;;;;;;5.35;1.45;;;;;;;23.94;43.08;99837.16;4483397;32;33856;-61
2021/05/21 04:50:13;;;;;;;12.55;2.80;;;;;;;23.97;42.90;99836.69;4480250;32;34207;-62
2021/05/21 04:52:40;;;;;;;13.90;3.05;;;;;;;24.00;40.74;99832.66;4467603;32;33584;-61
2021/05/21 04:55:09;;;;;;;14.07;3.05;;;;;;;23.93;39.96;99838.22;4466341;32;34243;-61
2021/05/21 04:57:36;;;;;;;12.23;2.58;;;;;;;23.87;40.38;99837.22;4469007;32;33863;-62
2021/05/21 05:00:04;;;;;;;9.30;2.70;;;;;;;23.86;41.02;99842.91;4481602;32;34084;-62
2021/05/21 05:02:32;;;;;;;15.02;3.15;;;;;;;23.84;41.29;99842.31;4476266;32;34484;-61
2021/05/21 05:05:00;;;;;;;15.73;3.22;;;;;;;23.84;41.51;99842.31;4483034;32;34441;-62
2021/05/21 05:07:28;;;;;;;9.48;2.65;;;;;;;23.84;41.52;99839.56;4480147;32;33783;-62
2021/05/21 05:09:56;;;;;;;14.05;2.50;;;;;;;23.85;41.54;99843.97;4476636;32;34053;-61
2021/05/21 05:12:23;;;;;;;11.07;2.90;;;;;;;23.84;41.59;99837.69;4477522;32;33631;-62
2021/05/21 05:14:52;;;;;;;11.82;2.45;;;;;;;23.84;41.61;99845.03;4473221;32;33914;-61
2021/05/21 05:17:19;;;;;;;19.80;2.95;;;;;;;23.84;41.58;99847.75;4469137;32;34771;-62
2021/05/21 05:19:47;;;;;;;10.02;2.72;;;;;;;23.84;41.58;99845.84;4469580;32;33749;-62
2021/05/21 05:22:15;;;;;;;14.10;2.37;;;;;;;23.84;41.62;99847.75;4469204;32;34305;-61
2021/05/21 05:24:42;;;;;;;9.60;2.53;;;;;;;23.83;41.65;99838.75;4467789;32;33871;-62
2021/05/21 05:27:10;;;;;;;10.98;2.35;;;;;;;23.84;41.65;99843.13;4474970;32;34695;-62
2021/05/21 05:29:37;;;;;;;9.73;2.08;;;;;;;23.84;41.66;99847.75;4484880;32;34100;-61
2021/05/21 05:32:07;;;;;;;8.88;2.15;;;;;;;23.83;41.68;99844.19;4484522;32;33661;-61
2021/05/21 05:34:35;;;;;;;7.90;2.30;;;;;;;23.83;41.71;99851.53;4484878;32;34683;-62
2021/05/21 05:37:03;;;;;;;12.48;1.95;;;;;;;23.83;41.71;99846.09;4484801;32;33912;-63
2021/05/21 05:39:30;;;;;;;6.15;2.17;;;;;;;23.82;41.73;99852.59;4484874;32;34151;-61
2021/05/21 05:41:58;;;;;;;8.82;2.37;;;;;;;23.83;41.73;99852.38;4484959;32;33612;-61
2021/05/21 05:44:25;;;;;;;11.32;2.87;;;;;;;23.83;41.78;99851.53;4485264;32;33835;-62
2021/05/21 05:46:53;;;;;;;7.12;1.70;;;;;;;23.82;41.79;99847.97;4484740;32;33763;-60
2021/05/21 05:49:21;;;;;;;7.25;2.47;;;;;;;23.82;41.79;99853.41;4484843;32;34114;-61
2021/05/21 05:51:48;;;;;;;7.68;2.12;;;;;;;23.82;41.79;99858.03;4484836;32;33370;-62
2021/05/21 05:54:16;;;;;;;8.57;1.85;;;;;;;23.82;41.80;99850.69;4484622;32;33549;-61
2021/05/21 05:56:43;;;;;;;9.70;3.05;;;;;;;23.83;41.81;99855.09;4484852;32;35087;-61
2021/05/21 05:59:11;;;;;;;6.55;1.95;;;;;;;23.83;41.82;99851.53;4484771;32;34720;-60
2021/05/21 06:01:39;;;;;;;6.15;2.00;;;;;;;23.82;41.82;99855.31;4484634;32;33484;-61
2021/05/21 06:04:07;;;;;;;7.53;2.37;;;;;;;23.82;41.84;99850.69;4484986;32;33845;-61
2021/05/21 06:06:34;;;;;;;7.95;1.90;;;;;;;23.82;41.84;99852.59;4484898;32;34869;-62
2021/05/21 06:09:03;;;;;;;8.52;2.50;;;;;;;23.82;41.85;99852.59;4484666;32;34198;-60
2021/05/21 06:11:30;;;;;;;8.25;1.95;;;;;;;23.81;41.86;99854.47;4484701;32;33638;-61
2021/05/21 06:13:58;;;;;;;7.50;2.00;;;;;;;23.81;41.88;99853.66;4484703;32;34427;-60
2021/05/21 06:16:25;;;;;;;6.07;2.03;;;;;;;23.81;41.90;99850.94;4484533;32;34809;-62
2021/05/21 06:18:53;;;;;;;7.00;1.83;;;;;;;23.80;41.90;99849.28;4483744;32;33985;-61
2021/05/21 06:21:21;;;;;;;9.43;2.05;;;;;;;23.79;41.89;99848.44;4484554;32;33606;-61
2021/05/21 06:23:48;;;;;;;3.47;1.65;;;;;;;23.80;41.89;99854.72;4484490;32;33786;-62
2021/05/21 06:26:39;;;;;;;9.18;2.20;;;;;;;23.80;41.89;99841.09;4484514;32;33865;-61
2021/05/21 06:29:07;;;;;;;7.47;2.35;;;;;;;23.80;41.89;99841.09;4484346;32;35175;-60
2021/05/21 06:31:34;;;;;;;9.80;2.15;;;;;;;23.79;41.90;99843.00;4484652;32;33630;-62
2021/05/21 06:34:02;;;;;;;6.05;2.08;;;;;;;23.79;41.93;99848.44;4484475;32;35292;-61
2021/05/21 06:36:30;;;;;;;6.07;1.80;;;;;;;23.77;41.93;99850.53;4483469;32;34758;-59
2021/05/21 06:38:57;;;;;;;7.72;1.70;;;;;;;23.78;41.95;99845.91;4483606;32;34097;-62
2021/05/21 06:41:25;;;;;;;4.72;1.70;;;;;;;23.77;41.93;99845.09;4484031;32;33480;-62
2021/05/21 06:43:52;;;;;;;6.12;1.70;;;;;;;23.78;41.95;99846.78;4483766;32;33833;-62
2021/05/21 06:46:22;;;;;;;7.05;1.85;;;;;;;23.78;41.94;99849.50;4468799;32;33431;-64
2021/05/21 06:48:49;;;;;;;6.53;2.00;;;;;;;23.79;41.95;99853.06;4468875;32;34882;-63
2021/05/21 06:51:18;;;;;;;8.35;1.83;;;;;;;23.79;41.93;99842.16;4468768;32;32875;-62
2021/05/21 06:53:46;;;;;;;4.07;1.83;;;;;;;23.79;41.93;99845.72;4472349;32;34552;-63
2021/05/21 06:56:15;;;;;;;5.05;1.98;;;;;;;23.80;41.92;99836.47;4484219;32;33887;-61
2021/05/21 06:58:43;;;;;;;5.57;1.73;;;;;;;23.80;41.92;99841.91;4484338;32;34776;-62
2021/05/21 07:01:10;;;;;;;6.28;1.75;;;;;;;23.80;41.87;99830.19;4484263;32;33587;-63
2021/05/21 07:03:39;;;;;;;5.50;1.62;;;;;;;23.82;41.90;99839.78;4483586;32;33751;-62
2021/05/21 07:06:06;;;;;;;4.30;1.37;;;;;;;23.82;41.91;99830.78;4484326;32;33519;-63
2021/05/21 07:08:33;;;;;;;4.75;1.60;;;;;;;23.82;41.93;99830.78;4484273;32;34099;-62
2021/05/21 07:11:01;;;;;;;5.47;1.65;;;;;;;23.83;41.89;99835.19;4484056;32;33595;-62
2021/05/21 07:13:30;;;;;;;8.40;2.00;;;;;;;23.83;41.89;99825.13;4483817;32;33839;-62
2021/05/21 07:15:58;;;;;;;5.62;1.52;;;;;;;23.84;41.88;99820.50;4479316;32;33953;-62
2021/05/21 07:18:26;;;;;;;3.45;1.50;;;;;;;23.86;41.86;99827.38;4484041;32;34176;-60
2021/05/21 07:20:59;;;;;;;4.60;1.70;;;;;;;23.86;41.84;99823.81;4484168;32;33613;-63
2021/05/21 07:23:27;;;;;;;6.85;1.80;;;;;;;23.87;41.83;99817.31;4467221;32;33764;-63
2021/05/21 07:25:54;;;;;;;4.30;1.87;;;;;;;23.87;41.81;99825.47;4468229;32;33834;-62
2021/05/21 07:28:24;;;;;;;3.97;1.62;;;;;;;23.87;41.82;99828.19;4468400;32;33737;-63
2021/05/21 07:30:52;;;;;;;3.33;1.50;;;;;;;23.89;41.83;99823.38;4479827;32;34109;-63
2021/05/21 07:33:19;;;;;;;5.18;1.65;;;;;;;23.88;41.79;99822.53;4483769;32;34714;-63
2021/05/21 07:35:47;;;;;;;5.57;1.83;;;;;;;23.89;41.79;99813.31;4484120;32;33905;-61
2021/05/21 07:38:15;;;;;;;5.45;1.75;;;;;;;23.90;41.79;99808.69;4484055;32;33730;-63
2021/05/21 07:40:43;;;;;;;5.03;1.65;;;;;;;23.89;41.79;99817.94;4484031;32;33642;-63
2021/05/21 07:43:15;;;;;;;4.07;1.62;;;;;;;23.90;41.78;99819.59;4483309;32;34656;-62
2021/05/21 07:45:43;;;;;;;3.40;1.60;;;;;;;23.90;41.77;99814.97;4483719;32;33847;-62
2021/05/21 07:48:10;;;;;;;3.92;1.52;;;;;;;23.90;41.77;99823.13;4484029;32;34539;-62
2021/05/21 07:50:38;;;;;;;3.10;1.37;;;;;;;23.90;41.77;99817.69;4483946;32;33870;-61
2021/05/21 07:53:07;;;;;;;3.83;1.70;;;;;;;23.90;41.76;99817.69;4483587;32;33781;-62
2021/05/21 07:55:34;;;;;;;4.18;1.50;;;;;;;23.91;41.76;99824.78;4484099;32;34020;-62
2021/05/21 07:58:02;;;;;;;4.90;1.48;;;;;;;23.90;41.75;99819.59;4484174;32;33704;-62
2021/05/21 08:00:30;;;;;;;4.57;1.80;;;;;;;23.90;41.75;99814.97;4483803;32;33514;-61
2021/05/21 08:02:58;;;;;;;6.28;1.60;;;;;;;23.91;41.75;99824.78;4483338;32;33713;-63
2021/05/21 08:05:25;;;;;;;5.60;1.60;;;;;;;23.92;41.73;99814.72;4483921;32;35047;-61
2021/05/21 08:07:53;;;;;;;4.35;1.62;;;;;;;23.92;41.73;99815.56;4483766;32;34066;-61
2021/05/21 08:10:21;;;;;;;4.93;1.80;;;;;;;23.91;41.73;99813.06;4483807;32;34323;-63
2021/05/21 08:12:48;;;;;;;3.75;1.85;;;;;;;23.91;41.74;99813.06;4483627;32;33859;-61
2021/05/21 08:15:16;;;;;;;6.10;1.65;;;;;;;23.91;41.72;99810.34;4483338;32;33850;-62
2021/05/21 08:17:44;;;;;;;4.00;1.50;;;;;;;23.91;41.72;99804.88;4483550;32;34241;-60
2021/05/21 08:20:16;;;;;;;4.22;1.52;;;;;;;23.91;41.72;99802.16;4483650;32;34484;-61
2021/05/21 08:22:44;;;;;;;6.22;1.50;;;;;;;23.91;41.73;99802.16;4483546;32;33506;-62
2021/05/21 08:25:12;;;;;;;3.53;1.35;;;;;;;23.90;41.72;99801.34;4483133;32;34862;-63
2021/05/21 08:27:40;;;;;;;4.15;1.83;;;;;;;23.91;41.70;99799.44;4483474;32;34085;-62
2021/05/21 08:30:08;;;;;;;3.33;1.35;;;;;;;23.89;41.74;99813.31;4483553;32;33638;-62
2021/05/21 08:32:36;;;;;;;3.17;1.70;;;;;;;23.90;41.74;99804.06;4483937;32;33814;-61
2021/05/21 08:35:04;;;;;;;3.67;1.30;;;;;;;23.90;41.73;99814.12;4483268;32;33864;-62
2021/05/21 08:37:32;;;;;;;3.40;1.50;;;;;;;23.90;41.73;99814.97;4483169;32;34003;-63
2021/05/21 08:40:00;;;;;;;3.00;1.23;;;;;;;23.89;41.74;99824.19;4483353;32;33595;-63
2021/05/21 08:42:30;;;;;;;5.85;1.37;;;;;;;23.89;41.74;99817.94;4482871;32;34633;-63
2021/05/21 08:44:58;;;;;;;3.40;1.30;;;;;;;23.89;41.75;99804.31;4483326;32;33923;-61
2021/05/21 08:47:26;;;;;;;1.90;1.27;;;;;;;23.88;41.73;99792.56;4482262;32;34008;-62
2021/05/21 08:49:54;;;;;;;4.35;1.33;;;;;;;23.88;41.72;99792.56;4469217;32;33711;-61
2021/05/21 08:52:22;;;;;;;3.92;1.48;;;;;;;23.88;41.72;99787.13;4483278;32;34009;-62
2021/05/21 08:54:49;;;;;;;2.53;1.30;;;;;;;23.88;41.70;99775.41;4483254;32;34727;-62
2021/05/21 08:57:19;;;;;;;4.20;1.35;;;;;;;23.89;41.73;99787.94;4483153;32;33878;-61
2021/05/21 08:59:47;;;;;;;2.25;1.20;;;;;;;23.88;41.72;99778.94;4482059;32;33273;-61
2021/05/21 09:02:26;;;;;;;3.42;1.30;;;;;;;23.87;41.71;99770.97;4483003;32;33373;-63
2021/05/21 09:04:58;;;;;;;5.95;1.33;;;;;;;23.88;41.70;99767.22;4482307;32;33915;-62
2021/05/21 09:07:29;;;;;;;3.47;1.30;;;;;;;23.87;41.73;99768.25;4483114;32;34137;-60
2021/05/21 09:09:58;;;;;;;4.85;1.50;;;;;;;23.87;41.74;99763.63;4482984;32;33363;-62
2021/05/21 09:12:48;;;;;;;2.53;1.30;;;;;;;23.88;41.73;99769.94;4482919;32;33636;-62
2021/05/21 09:15:16;;;;;;;;;;;;;;;23.88;41.70;99764.50;4483522;32;33150;-62
2021/05/21 09:18:04;;;;;;;3.50;1.45;;;;;;;23.96;41.50;99763.31;4481814;32;34247;-62
2021/05/21 09:20:38;;;;;;;3.28;1.40;;;;;;;23.90;41.67;99767.81;4482548;32;33225;-62
2021/05/21 09:23:12;;;;;;;3.53;1.27;;;;;;;23.85;41.75;99770.41;4482625;32;33551;-62
2021/05/21 09:25:46;;;;;;;4.55;1.30;;;;;;;23.85;41.76;99767.66;4482780;32;34544;-62
2021/05/21 09:28:33;;;;;;;3.28;1.50;;;;;;;23.84;41.79;99755.94;4482802;32;34183;-61
2021/05/21 09:31:10;;;;;;;4.32;1.60;;;;;;;23.87;41.75;99757.34;4482473;32;33490;-61
2021/05/21 09:33:40;;;;;;;1.80;1.20;;;;;;;23.84;41.76;99750.50;4482674;32;34614;-61
2021/05/21 09:36:09;;;;;;;;;;;;;;;23.83;41.79;99753.47;4483101;32;33975;-62
2021/05/21 09:38:50;;;;;;;2.33;1.10;;;;;;;23.94;41.56;99760.84;4482509;32;34255;-62
2021/05/21 09:41:52;;;;;;;2.78;1.48;;;;;;;23.87;41.69;99760.91;4482512;32;34551;-63
2021/05/21 09:44:20;;;;;;;2.95;1.30;;;;;;;23.86;41.73;99755.69;4482430;32;33515;-62
2021/05/21 09:46:49;;;;;;;2.80;1.30;;;;;;;23.83;41.78;99758.91;4482226;32;34625;-61
2021/05/21 09:49:31;;;;;;;4.07;1.42;;;;;;;23.83;41.78;99750.72;4482811;32;34723;-63
2021/05/21 09:51:59;;;;;;;3.75;1.48;;;;;;;23.83;41.77;99735.22;4482770;32;34234;-63
2021/05/21 09:54:27;;;;;;;2.95;1.40;;;;;;;23.83;41.78;99748.00;4484704;32;33751;-63
2021/05/21 09:57:05;;;;;;;3.25;1.40;;;;;;;23.83;41.77;99742.56;4484783;32;33745;-61
2021/05/21 09:59:44;;;;;;;2.72;1.33;;;;;;;23.84;41.73;99733.31;4484673;32;34079;-63
2021/05/21 10:02:22;;;;;;;4.65;1.48;;;;;;;23.83;41.73;99737.94;4484381;32;33491;-62
2021/05/21 10:04:57;;;;;;;2.50;1.30;;;;;;;23.84;41.73;99744.22;4484599;32;34172;-63
2021/05/21 10:07:24;;;;;;;3.00;1.52;;;;;;;23.83;41.74;99737.09;4484988;32;33854;-61
2021/05/21 10:09:52;;;;;;;2.95;1.20;;;;;;;23.83;41.75;99731.66;4484942;32;34052;-62
2021/05/21 10:12:19;;;;;;;2.78;1.30;;;;;;;23.83;41.73;99739.84;4484302;32;34312;-63
2021/05/21 10:14:51;;;;;;;2.42;1.30;;;;;;;23.83;41.72;99734.37;4484775;32;34659;-62
2021/05/21 10:17:23;;;;;;;2.58;1.20;;;;;;;23.83;41.72;99731.66;4484573;32;34533;-64
2021/05/21 10:19:53;;;;;;;3.15;1.17;;;;;;;23.83;41.72;99723.47;4484751;32;34024;-62
2021/05/21 10:22:35;;;;;;;3.17;1.33;;;;;;;23.83;41.69;99724.31;4484447;32;33971;-63
2021/05/21 10:25:10;;;;;;;3.28;1.30;;;;;;;23.84;41.71;99720.53;4483492;32;33941;-63
2021/05/21 10:27:39;;;;;;;3.90;1.40;;;;;;;23.84;41.69;99714.25;4470490;32;33735;-63
2021/05/21 10:30:07;;;;;;;2.33;1.00;;;;;;;23.83;41.71;99718.03;4470312;32;35051;-64
2021/05/21 10:32:36;;;;;;;3.08;1.20;;;;;;;23.83;41.69;99705.25;4484049;32;33428;-63
2021/05/21 10:35:20;;;;;;;2.33;1.40;;;;;;;23.84;41.66;99704.16;4484520;32;33912;-61
2021/05/21 10:38:25;;;;;;;2.75;1.33;;;;;;;23.85;41.66;99707.72;4484714;32;33929;-62
2021/05/21 10:41:12;;;;;;;3.90;1.35;;;;;;;23.84;41.66;99698.72;4484724;32;34051;-63
2021/05/21 10:43:49;;;;;;;3.33;1.33;;;;;;;23.82;41.72;99698.09;4468747;32;33636;-64
2021/05/21 10:46:18;;;;;;;1.98;1.15;;;;;;;23.81;41.72;99691.00;4469082;32;33790;-63
2021/05/21 10:48:59;;;;;;;3.08;1.20;;;;;;;23.81;41.72;99676.53;4468636;32;33800;-61
2021/05/21 10:51:28;;;;;;;2.47;1.30;;;;;;;23.84;41.68;99678.81;4469091;32;33976;-62
2021/05/21 10:54:25;;;;;;;2.28;1.20;;;;;;;23.81;41.71;99685.56;4484495;32;33478;-62
2021/05/21 10:56:58;;;;;;;3.50;1.48;;;;;;;23.84;41.65;99681.53;4484485;32;34670;-64
2021/05/21 10:59:57;;;;;;;2.55;1.25;;;;;;;23.80;41.70;99670.28;4482290;32;34771;-62
2021/05/21 11:02:25;;;;;;;2.42;1.20;;;;;;;23.82;41.69;99673.59;4474614;32;34927;-61
2021/05/21 11:04:54;;;;;;;1.55;1.20;;;;;;;23.80;41.72;99667.53;4477687;32;33999;-61
2021/05/21 11:07:38;;;;;;;3.35;1.10;;;;;;;23.81;41.71;99661.03;4470945;32;34556;-61
2021/05/21 11:10:06;;;;;;;1.75;1.08;;;;;;;23.83;41.69;99663.53;4484068;32;33624;-62
2021/05/21 11:12:44;;;;;;;2.97;1.15;;;;;;;23.81;41.70;99652.03;4484268;32;34003;-63
2021/05/21 11:15:32;;;;;;;3.92;1.30;;;;;;;23.83;41.69;99639.03;4484126;32;33297;-63
2021/05/21 11:18:16;;;;;;;1.60;1.10;;;;;;;23.84;41.66;99640.69;4458346;32;33862;-61
2021/05/21 11:21:03;;;;;;;4.97;1.30;;;;;;;23.85;41.63;99628.69;4468602;32;33648;-63
2021/05/21 11:23:39;;;;;;;3.28;1.10;;;;;;;23.84;41.63;99632.50;4468624;32;33771;-59
2021/05/21 11:26:12;;;;;;;2.30;1.20;;;;;;;23.81;41.69;99639.22;4477379;32;34367;-59
2021/05/21 11:28:43;;;;;;;2.22;1.15;;;;;;;23.80;41.70;99623.12;4484325;32;34587;-54
2021/05/21 11:31:22;;;;;;;2.65;1.12;;;;;;;23.79;41.71;99630.47;4472273;32;33706;-61
2021/05/21 11:33:51;;;;;;;2.92;1.20;;;;;;;23.81;41.73;99632.94;4476948;32;34108;-60
2021/05/21 11:36:20;;;;;;;2.42;1.27;;;;;;;23.81;41.70;99627.50;4483877;32;34230;-60
2021/05/21 11:38:47;;;;;;;1.98;1.27;;;;;;;23.81;41.67;99622.06;4484086;32;33536;-60
2021/05/21 11:41:15;;;;;;;2.17;1.10;;;;;;;23.80;41.68;99613.06;4483837;32;33666;-61
2021/05/21 11:43:44;;;;;;;2.80;1.45;;;;;;;23.81;41.69;99620.16;4482793;32;34012;-60
2021/05/21 11:46:17;;;;;;;2.60;1.20;;;;;;;23.80;41.69;99621.22;4484024;32;33027;-61